createdAt,value
2022-11-15T00:00:24.059Z,61.77
2022-11-15T00:03:10.174Z,60.37
2022-11-15T00:05:55.781Z,63.87
2022-11-15T00:08:42.173Z,64.40
2022-11-15T00:11:28.491Z,68.37
2022-11-15T00:14:14.319Z,64.73
2022-11-15T00:16:59.946Z,62.57
2022-11-15T00:19:46.089Z,63.93
2022-11-15T00:22:34.952Z,68.47
2022-11-15T00:25:21.529Z,67.00
2022-11-15T00:28:07.635Z,66.43
2022-11-15T00:30:54.272Z,70.00
2022-11-15T00:33:40.292Z,67.47
2022-11-15T00:36:26.438Z,71.87
2022-11-15T00:39:12.019Z,69.30
2022-11-15T00:41:58.739Z,68.27
2022-11-15T00:44:44.613Z,67.57
2022-11-15T00:47:31.083Z,68.63
2022-11-15T00:50:17.109Z,71.23
2022-11-15T00:53:59.540Z,70.33
2022-11-15T00:56:45.896Z,69.30
2022-11-15T00:59:32.023Z,70.50
2022-11-15T01:02:18.932Z,69.33
2022-11-15T01:05:05.427Z,73.27
2022-11-15T01:07:55.285Z,77.10
2022-11-15T01:10:41.531Z,74.60
2022-11-15T01:13:27.409Z,79.43
2022-11-15T01:16:16.225Z,74.97
2022-11-15T01:19:02.672Z,75.80
2022-11-15T01:21:52.820Z,78.77
2022-11-15T01:24:39.087Z,74.23
2022-11-15T01:27:25.699Z,72.40
2022-11-15T01:30:11.749Z,76.97
2022-11-15T01:32:58.106Z,79.03
2022-11-15T01:35:43.903Z,76.67
2022-11-15T01:38:30.183Z,74.13
2022-11-15T01:41:19.037Z,75.27
2022-11-15T01:44:35.889Z,76.27
2022-11-15T01:47:30.351Z,77.30
2022-11-15T01:50:21.218Z,79.27
2022-11-15T01:53:07.830Z,79.20
2022-11-15T01:55:55.563Z,76.90
2022-11-15T01:58:43.100Z,78.57
2022-11-15T02:01:31.808Z,75.87
2022-11-15T02:04:20.162Z,69.60
2022-11-15T02:07:08.710Z,68.83
2022-11-15T02:09:55.984Z,73.07
2022-11-15T02:12:42.712Z,68.67
2022-11-15T02:15:37.521Z,71.30
2022-11-15T02:18:30.357Z,64.73
2022-11-15T02:21:41.180Z,69.67
2022-11-15T02:24:51.794Z,64.73
2022-11-15T02:27:37.779Z,67.40
2022-11-15T02:30:31.201Z,65.17
2022-11-15T02:33:35.222Z,66.40
2022-11-15T02:36:27.998Z,63.33
2022-11-15T02:39:33.183Z,66.13
2022-11-15T02:42:45.644Z,63.77
2022-11-15T02:45:38.229Z,64.57
2022-11-15T02:48:26.682Z,64.40
2022-11-15T02:51:14.716Z,66.70
2022-11-15T02:54:00.655Z,64.13
2022-11-15T02:56:47.470Z,68.07
2022-11-15T03:00:04.747Z,62.27
2022-11-15T03:02:53.307Z,65.33
2022-11-15T03:05:50.699Z,65.43
2022-11-15T03:08:51.840Z,65.33
2022-11-15T03:11:42.656Z,66.37
2022-11-15T03:14:37.034Z,62.43
2022-11-15T03:17:35.741Z,62.23
2022-11-15T03:20:22.004Z,64.80
2022-11-15T03:23:11.202Z,67.03
2022-11-15T03:25:59.578Z,66.77
2022-11-15T03:28:51.750Z,68.83
2022-11-15T03:31:50.325Z,68.70
2022-11-15T03:34:46.299Z,67.47
2022-11-15T03:37:58.635Z,65.93
2022-11-15T03:40:52.603Z,69.70
2022-11-15T03:44:00.844Z,72.40
2022-11-15T03:47:03.803Z,71.30
2022-11-15T03:49:56.959Z,71.43
2022-11-15T03:52:45.843Z,72.37
2022-11-15T03:55:33.767Z,73.33
2022-11-15T03:58:20.021Z,68.87
2022-11-15T04:01:06.223Z,70.90
2022-11-15T04:03:52.590Z,67.73
2022-11-15T04:06:38.356Z,65.23
2022-11-15T04:09:24.508Z,69.40
2022-11-15T04:12:10.604Z,65.87
2022-11-15T04:15:08.360Z,63.90
2022-11-15T04:17:57.423Z,66.00
2022-11-15T04:21:01.950Z,61.83
2022-11-15T04:24:08.381Z,59.47
2022-11-15T04:26:54.654Z,60.07
2022-11-15T04:29:40.825Z,59.67
2022-11-15T04:32:27.070Z,61.83
2022-11-15T04:35:13.358Z,57.00
2022-11-15T04:38:00.102Z,58.53
2022-11-15T04:40:46.143Z,59.33
2022-11-15T04:43:33.135Z,61.67
2022-11-15T04:46:19.324Z,59.77
2022-11-15T04:49:05.869Z,61.50
2022-11-15T04:51:51.449Z,65.90
2022-11-15T04:54:37.168Z,66.30
2022-11-15T04:57:23.229Z,62.90
2022-11-15T05:00:12.871Z,59.87
2022-11-15T05:03:17.715Z,69.60
2022-11-15T05:06:04.316Z,65.33
2022-11-15T05:08:50.462Z,68.53
2022-11-15T05:11:36.852Z,66.77
2022-11-15T05:14:22.877Z,63.33
2022-11-15T05:17:09.125Z,64.03
2022-11-15T05:19:55.527Z,62.37
2022-11-15T05:22:42.005Z,70.80
2022-11-15T05:25:28.403Z,63.97
2022-11-15T05:28:14.631Z,67.70
2022-11-15T05:31:08.202Z,62.97
2022-11-15T05:33:56.062Z,65.00
2022-11-15T05:36:48.560Z,71.37
2022-11-15T05:39:34.818Z,63.43
2022-11-15T05:42:20.750Z,71.03
2022-11-15T05:45:09.790Z,69.70
2022-11-15T05:47:57.858Z,68.67
2022-11-15T05:50:47.651Z,63.20
2022-11-15T05:53:34.680Z,69.30
2022-11-15T05:56:21.597Z,68.23
2022-11-15T05:59:09.348Z,71.37
2022-11-15T06:01:55.881Z,68.13
2022-11-15T06:04:41.771Z,64.60
2022-11-15T06:07:29.897Z,64.97
2022-11-15T06:10:15.942Z,64.43
2022-11-15T06:13:04.617Z,64.47
2022-11-15T06:15:50.652Z,65.03
2022-11-15T06:18:37.958Z,66.37
2022-11-15T06:21:23.833Z,68.43
2022-11-15T06:24:09.903Z,66.37
2022-11-15T06:26:55.972Z,70.60
2022-11-15T06:29:42.935Z,68.87
2022-11-15T06:32:31.308Z,67.17
2022-11-15T06:35:17.741Z,66.80
2022-11-15T06:38:09.363Z,69.77
2022-11-15T06:40:55.600Z,65.73
2022-11-15T06:43:42.290Z,65.30
2022-11-15T06:46:28.676Z,70.40
2022-11-15T06:49:15.537Z,67.80
2022-11-15T06:52:01.802Z,69.03
2022-11-15T06:54:47.603Z,71.77
2022-11-15T06:57:34.088Z,63.57
2022-11-15T07:00:21.844Z,65.47
2022-11-15T07:03:08.102Z,73.17
2022-11-15T07:05:56.110Z,76.50
2022-11-15T07:08:42.893Z,66.43
2022-11-15T07:11:29.070Z,58.13
2022-11-15T07:14:15.134Z,56.17
2022-11-15T07:17:00.645Z,56.67
2022-11-15T07:19:46.332Z,59.83
2022-11-15T07:22:31.854Z,60.00
2022-11-15T07:25:18.085Z,60.37
2022-11-15T07:28:04.547Z,58.07
2022-11-15T07:30:50.763Z,57.40
2022-11-15T07:33:36.836Z,64.07
2022-11-15T07:36:23.168Z,64.57
2022-11-15T07:39:09.254Z,61.73
2022-11-15T07:42:14.991Z,63.57
2022-11-15T07:45:00.488Z,61.90
2022-11-15T07:47:47.938Z,64.33
2022-11-15T07:50:33.907Z,60.13
2022-11-15T07:53:20.075Z,62.00
2022-11-15T07:56:09.040Z,58.67
2022-11-15T07:58:55.286Z,62.77
2022-11-15T08:01:41.527Z,58.53
2022-11-15T08:04:27.927Z,61.97
2022-11-15T08:07:14.381Z,60.80
2022-11-15T08:10:02.344Z,56.07
2022-11-15T08:12:48.454Z,57.47
2022-11-15T08:15:35.916Z,54.80
2022-11-15T08:18:21.911Z,54.97
2022-11-15T08:21:13.027Z,53.03
2022-11-15T08:24:02.832Z,56.93
2022-11-15T08:26:49.121Z,56.27
2022-11-15T08:29:34.828Z,52.30
2022-11-15T08:32:20.788Z,50.67
2022-11-15T08:35:07.363Z,53.20
2022-11-15T08:37:54.553Z,47.40
2022-11-15T08:40:40.326Z,48.17
2022-11-15T08:43:26.507Z,47.17
2022-11-15T08:46:14.762Z,46.73
2022-11-15T08:49:00.745Z,49.60
2022-11-15T08:51:46.604Z,48.90
2022-11-15T08:54:32.967Z,46.33
2022-11-15T08:57:18.852Z,48.27
2022-11-15T09:00:05.944Z,46.53
2022-11-15T09:02:51.775Z,45.97
2022-11-15T09:05:38.999Z,48.60
2022-11-15T09:08:46.665Z,49.23
2022-11-15T09:11:31.826Z,47.80
2022-11-15T09:14:17.843Z,48.20
2022-11-15T09:17:04.212Z,44.93
2022-11-15T09:19:49.782Z,46.20
2022-11-15T09:22:35.839Z,47.30
2022-11-15T09:25:21.781Z,40.80
2022-11-15T09:28:09.433Z,42.13
2022-11-15T09:31:04.698Z,43.60
2022-11-15T09:33:50.898Z,45.57
2022-11-15T09:36:36.572Z,45.83
2022-11-15T09:39:25.032Z,45.57
2022-11-15T09:42:26.073Z,50.53
2022-11-15T09:45:15.423Z,51.20
2022-11-15T09:48:48.689Z,51.13
2022-11-15T09:51:47.824Z,48.03
2022-11-15T09:57:47.644Z,46.07
2022-11-15T10:00:45.437Z,47.97
2022-11-15T10:03:13.681Z,45.43
2022-11-15T10:05:47.064Z,43.47
2022-11-15T10:08:22.517Z,46.83
2022-11-15T10:11:36.782Z,46.43
2022-11-15T10:14:01.797Z,46.97
2022-11-15T10:16:34.635Z,51.83
2022-11-15T10:19:06.571Z,48.97
2022-11-15T10:21:58.801Z,50.53
2022-11-15T10:24:31.964Z,52.70
2022-11-15T10:26:59.154Z,51.90
2022-11-15T10:29:27.515Z,53.00
2022-11-15T10:31:54.797Z,53.03
2022-11-15T10:34:24.543Z,53.53
2022-11-15T10:37:00.280Z,53.13
2022-11-15T10:39:28.260Z,53.80
2022-11-15T10:41:56.087Z,51.60
2022-11-15T10:44:33.317Z,54.23
2022-11-15T10:47:00.493Z,57.27
2022-11-15T10:49:30.553Z,61.60
2022-11-15T10:52:03.888Z,61.77
2022-11-15T10:54:48.450Z,61.67
2022-11-15T10:57:18.753Z,63.83
2022-11-15T10:59:49.562Z,60.03
2022-11-15T11:02:33.718Z,59.67
2022-11-15T11:05:02.953Z,62.77
2022-11-15T11:07:34.940Z,60.47
2022-11-15T11:10:49.672Z,63.83
2022-11-15T11:13:38.819Z,61.53
2022-11-15T11:16:15.423Z,58.23
2022-11-15T11:19:16.726Z,55.07
2022-11-15T11:22:07.976Z,56.07
2022-11-15T11:25:03.822Z,54.80
2022-11-15T11:27:51.409Z,54.77
2022-11-15T11:30:21.604Z,54.10
2022-11-15T11:33:07.506Z,55.20
2022-11-15T11:36:06.562Z,50.40
2022-11-15T11:38:44.548Z,51.20
2022-11-15T11:41:30.811Z,50.53
2022-11-15T11:44:08.621Z,48.37
2022-11-15T11:47:12.963Z,51.73
2022-11-15T11:49:50.903Z,50.23
2022-11-15T11:52:46.215Z,56.17
2022-11-15T11:55:29.274Z,53.23
2022-11-15T11:58:28.985Z,55.73
2022-11-15T12:01:07.303Z,55.77
2022-11-15T12:03:45.348Z,55.03
2022-11-15T12:06:43.710Z,58.70
2022-11-15T12:09:28.917Z,58.33
2022-11-15T12:12:28.494Z,58.47
2022-11-15T12:15:15.232Z,59.43
2022-11-15T12:17:43.354Z,61.30
2022-11-15T12:20:28.883Z,60.33
2022-11-15T12:23:05.988Z,59.43
2022-11-15T12:25:51.600Z,58.30
2022-11-15T12:29:04.448Z,58.70
2022-11-15T12:31:36.459Z,53.83
2022-11-15T12:34:26.633Z,56.70
2022-11-15T12:36:53.906Z,57.37
2022-11-15T12:39:42.085Z,56.77
2022-11-15T12:42:09.373Z,51.73
2022-11-15T12:44:37.346Z,51.17
2022-11-15T12:47:10.846Z,53.87
2022-11-15T12:49:38.425Z,52.23
2022-11-15T12:52:08.417Z,53.20
2022-11-15T12:54:41.925Z,52.40
2022-11-15T12:57:09.333Z,54.07
2022-11-15T12:59:56.523Z,50.20
2022-11-15T13:02:30.951Z,49.50
2022-11-15T13:05:17.053Z,53.10
2022-11-15T13:07:44.524Z,55.27
2022-11-15T13:10:28.715Z,53.23
2022-11-15T13:12:59.122Z,52.60
2022-11-15T13:15:57.773Z,52.07
2022-11-15T13:18:42.058Z,51.80
2022-11-15T13:21:42.665Z,53.20
2022-11-15T13:24:18.930Z,52.53
2022-11-15T13:26:49.594Z,52.70
2022-11-15T13:29:34.550Z,63.63
2022-11-15T13:32:04.363Z,63.47
2022-11-15T13:34:51.037Z,65.53
2022-11-15T13:37:23.337Z,64.80
2022-11-15T13:39:52.857Z,64.13
2022-11-15T13:42:23.818Z,61.70
2022-11-15T13:45:02.035Z,64.47
2022-11-15T13:47:32.762Z,62.27
2022-11-15T13:50:02.335Z,62.57
2022-11-15T13:52:35.273Z,64.13
2022-11-15T13:55:09.614Z,60.97
2022-11-15T13:57:44.144Z,61.03
2022-11-15T14:00:29.715Z,60.53
2022-11-15T14:03:06.580Z,55.53
2022-11-15T14:05:34.332Z,58.47
2022-11-15T14:08:22.139Z,54.30
2022-11-15T14:10:50.975Z,58.40
2022-11-15T14:13:31.892Z,58.53
2022-11-15T14:16:22.865Z,56.47
2022-11-15T14:18:53.547Z,54.77
2022-11-15T14:21:21.719Z,55.83
2022-11-15T14:23:50.227Z,59.93
2022-11-15T14:26:35.150Z,54.57
2022-11-15T14:29:25.223Z,54.97
2022-11-15T14:31:53.487Z,54.47
2022-11-15T14:34:23.357Z,51.57
2022-11-15T14:36:50.825Z,52.10
2022-11-15T14:39:18.598Z,49.40
2022-11-15T14:41:46.033Z,51.07
2022-11-15T14:44:13.916Z,47.83
2022-11-15T14:46:41.499Z,50.33
2022-11-15T14:49:10.252Z,53.20
2022-11-15T14:51:38.211Z,51.20
2022-11-15T14:54:06.538Z,50.30
2022-11-15T14:56:34.024Z,52.50
2022-11-15T14:59:02.158Z,52.07
2022-11-15T15:01:30.450Z,52.37
2022-11-15T15:03:59.681Z,51.67
2022-11-15T15:06:28.428Z,54.83
2022-11-15T15:08:56.993Z,79.10
2022-11-15T15:11:30.638Z,78.77
2022-11-15T15:14:02.531Z,57.37
2022-11-15T15:16:32.184Z,56.43
2022-11-15T15:19:02.894Z,52.90
2022-11-15T15:21:37.199Z,50.27
2022-11-15T15:24:06.445Z,54.03
2022-11-15T15:26:37.775Z,58.83
2022-11-15T15:29:05.971Z,67.53
2022-11-15T15:31:34.260Z,54.27
2022-11-15T15:34:02.740Z,59.73
2022-11-15T15:36:30.570Z,119.97
2022-11-15T15:38:59.530Z,74.00
2022-11-15T15:41:27.443Z,68.67
2022-11-15T15:43:55.084Z,54.40
2022-11-15T15:46:23.196Z,52.53
2022-11-15T15:48:51.696Z,53.07
2022-11-15T15:51:20.671Z,51.10
2022-11-15T15:53:50.754Z,61.43
2022-11-15T15:56:20.262Z,66.20
2022-11-15T15:58:49.410Z,56.80
2022-11-15T16:01:16.954Z,72.50
2022-11-15T16:03:45.046Z,67.60
2022-11-15T16:06:40.470Z,96.77
2022-11-15T16:09:16.439Z,87.57
2022-11-15T16:11:48.385Z,73.90
2022-11-15T16:14:17.677Z,60.00
2022-11-15T16:16:47.153Z,57.53
2022-11-15T16:19:15.298Z,63.27
2022-11-15T16:21:43.281Z,57.77
2022-11-15T16:24:11.320Z,66.87
2022-11-15T16:26:39.391Z,63.37
2022-11-15T16:29:08.127Z,62.47
2022-11-15T16:31:35.521Z,57.27
2022-11-15T16:34:03.283Z,60.50
2022-11-15T16:36:33.913Z,67.13
2022-11-15T16:39:05.099Z,67.47
2022-11-15T16:41:33.118Z,58.13
2022-11-15T16:44:01.288Z,60.40
2022-11-15T16:46:30.487Z,56.70
2022-11-15T16:48:58.343Z,114.10
2022-11-15T16:51:25.897Z,286.53
2022-11-15T16:53:53.666Z,90.53
2022-11-15T16:56:29.399Z,87.50
2022-11-15T16:58:59.819Z,60.67
2022-11-15T17:01:33.754Z,76.53
2022-11-15T17:04:13.291Z,61.17
2022-11-15T17:06:42.992Z,61.97
2022-11-15T17:09:25.466Z,152.23
2022-11-15T17:11:53.679Z,94.83
2022-11-15T17:14:22.577Z,222.50
2022-11-15T17:16:49.863Z,171.90
2022-11-15T17:19:20.244Z,192.60
2022-11-15T17:21:51.943Z,135.47
2022-11-15T17:24:21.273Z,79.53
2022-11-15T17:26:49.434Z,136.00
2022-11-15T17:29:17.404Z,268.47
2022-11-15T17:31:45.019Z,92.63
2022-11-15T17:34:12.922Z,175.13
2022-11-15T17:36:40.748Z,115.97
2022-11-15T17:39:08.495Z,140.13
2022-11-15T17:41:35.882Z,208.70
2022-11-15T17:44:03.890Z,70.20
2022-11-15T17:46:32.404Z,99.53
2022-11-15T17:49:00.358Z,105.60
2022-11-15T17:51:28.387Z,101.37
2022-11-15T17:53:56.322Z,78.00
2022-11-15T17:56:25.949Z,109.67
2022-11-15T17:59:03.167Z,62.10
2022-11-15T18:01:36.194Z,98.93
2022-11-15T18:04:09.203Z,73.20
2022-11-15T18:06:37.014Z,59.37
2022-11-15T18:09:04.993Z,70.13
2022-11-15T18:11:34.978Z,94.33
2022-11-15T18:14:04.426Z,109.30
2022-11-15T18:16:34.401Z,65.17
2022-11-15T18:19:08.950Z,76.23
2022-11-15T18:24:45.062Z,67.40
2022-11-15T18:27:12.507Z,70.00
2022-11-15T18:29:40.278Z,93.50
2022-11-15T18:32:12.630Z,58.70
2022-11-15T18:34:40.387Z,62.90
2022-11-15T18:37:08.231Z,74.70
2022-11-15T18:39:36.122Z,67.20
2022-11-15T18:42:03.941Z,63.27
2022-11-15T18:44:31.766Z,72.77
2022-11-15T18:46:59.274Z,100.50
2022-11-15T18:49:27.253Z,65.83
2022-11-15T18:51:55.207Z,82.13
2022-11-15T18:54:28.116Z,74.13
2022-11-15T18:56:58.319Z,67.23
2022-11-15T18:59:27.878Z,66.57
2022-11-15T19:01:56.195Z,62.57
2022-11-15T19:04:24.206Z,60.70
2022-11-15T19:06:53.084Z,57.33
2022-11-15T19:09:21.044Z,56.07
2022-11-15T19:11:51.815Z,58.77
2022-11-15T19:14:24.300Z,54.83
2022-11-15T19:16:52.878Z,99.90
2022-11-15T19:19:23.976Z,70.67
2022-11-15T19:21:52.950Z,61.90
2022-11-15T19:24:21.448Z,57.17
2022-11-15T19:26:49.066Z,58.53
2022-11-15T19:29:18.688Z,56.13
2022-11-15T19:31:47.933Z,53.73
2022-11-15T19:34:16.687Z,50.70
2022-11-15T19:36:45.578Z,58.57
2022-11-15T19:39:15.415Z,67.40
2022-11-15T19:41:44.912Z,70.10
2022-11-15T19:44:14.921Z,59.87
2022-11-15T19:46:44.827Z,54.07
2022-11-15T19:49:14.263Z,48.70
2022-11-15T19:51:44.695Z,47.10
2022-11-15T19:54:14.259Z,48.53
2022-11-15T19:56:43.694Z,41.67
2022-11-15T19:59:13.450Z,41.73
2022-11-15T20:01:42.455Z,52.47
2022-11-15T20:04:11.642Z,44.80
2022-11-15T20:06:43.502Z,41.73
2022-11-15T20:09:15.058Z,41.77
2022-11-15T20:11:44.875Z,45.83
2022-11-15T20:14:14.725Z,41.30
2022-11-15T20:16:46.407Z,45.10
2022-11-15T20:19:18.398Z,45.77
2022-11-15T20:21:47.914Z,47.27
2022-11-15T20:24:17.147Z,46.37
2022-11-15T20:26:44.915Z,47.90
2022-11-15T20:29:13.384Z,62.00
2022-11-15T20:31:41.297Z,43.27
2022-11-15T20:34:09.600Z,45.10
2022-11-15T20:36:37.650Z,43.03
2022-11-15T20:39:06.032Z,40.93
2022-11-15T20:41:34.587Z,39.97
2022-11-15T20:44:03.816Z,41.03
2022-11-15T20:46:32.333Z,40.23
2022-11-15T20:49:00.609Z,37.43
2022-11-15T20:51:28.352Z,37.70
2022-11-15T20:53:56.850Z,38.60
2022-11-15T20:56:25.142Z,36.10
2022-11-15T20:58:53.714Z,36.77
2022-11-15T21:01:25.225Z,38.97
2022-11-15T21:03:56.298Z,40.10
2022-11-15T21:06:26.120Z,36.57
2022-11-15T21:09:14.156Z,35.90
2022-11-15T21:12:01.595Z,32.60
2022-11-15T21:14:30.256Z,32.80
2022-11-15T21:16:59.009Z,31.60
2022-11-15T21:19:32.653Z,31.20
2022-11-15T21:22:05.056Z,30.97
2022-11-15T21:24:33.559Z,31.93
2022-11-15T21:27:01.542Z,30.13
2022-11-15T21:29:36.442Z,27.70
2022-11-15T21:32:09.146Z,27.67
2022-11-15T21:34:38.606Z,29.90
2022-11-15T21:37:07.231Z,30.23
2022-11-15T21:39:35.486Z,28.93
2022-11-15T21:42:03.551Z,31.17
2022-11-15T21:44:32.158Z,41.00
2022-11-15T21:47:03.425Z,74.20
2022-11-15T21:49:31.401Z,48.47
2022-11-15T21:51:58.895Z,157.97
2022-11-15T21:54:26.813Z,251.17
2022-11-15T21:56:54.334Z,276.93
2022-11-15T21:59:22.297Z,107.33
2022-11-15T22:02:08.236Z,58.20
2022-11-15T22:04:45.242Z,50.43
2022-11-15T22:07:12.835Z,57.30
2022-11-15T22:09:41.127Z,39.67
2022-11-15T22:12:08.850Z,79.87
2022-11-15T22:14:36.820Z,63.00
2022-11-15T22:17:04.525Z,48.33
2022-11-15T22:19:32.330Z,39.57
2022-11-15T22:22:00.048Z,51.53
2022-11-15T22:24:27.916Z,32.07
2022-11-15T22:26:55.631Z,30.17
2022-11-15T22:29:23.524Z,32.50
2022-11-15T22:31:51.020Z,31.17
2022-11-15T22:34:18.940Z,30.93
2022-11-15T22:37:18.367Z,39.03
2022-11-15T22:39:34.285Z,36.53
2022-11-15T22:42:01.807Z,41.57
2022-11-15T22:44:29.676Z,54.00
2022-11-15T22:46:57.064Z,39.10
2022-11-15T22:49:24.733Z,51.57
2022-11-15T22:51:52.209Z,99.80
2022-11-15T22:54:20.211Z,43.40
2022-11-15T22:56:47.801Z,40.20
2022-11-15T22:59:15.635Z,40.37
2022-11-15T23:01:43.333Z,39.33
2022-11-15T23:04:11.141Z,40.87
2022-11-15T23:06:38.716Z,38.73
2022-11-15T23:09:06.461Z,36.23
2022-11-15T23:11:52.272Z,40.87
2022-11-15T23:14:20.123Z,35.77
2022-11-15T23:16:47.503Z,36.20
2022-11-15T23:19:15.366Z,36.83
2022-11-15T23:22:03.528Z,36.63
2022-11-15T23:24:32.936Z,37.37
2022-11-15T23:27:07.475Z,33.63
2022-11-15T23:29:57.332Z,40.63
2022-11-15T23:32:43.390Z,35.70
2022-11-15T23:35:11.086Z,37.50
2022-11-15T23:37:38.612Z,34.70
2022-11-15T23:40:07.343Z,36.63
2022-11-15T23:42:34.807Z,38.20
2022-11-15T23:45:02.606Z,36.37
2022-11-15T23:47:30.063Z,36.17
2022-11-15T23:49:57.824Z,33.90
2022-11-15T23:52:25.830Z,34.90
2022-11-15T23:54:53.689Z,36.60
2022-11-15T23:57:21.190Z,32.97
2022-11-15T23:59:48.993Z,34.20
